createdAt,value
2023-01-20T00:01:28.153Z,100636.11
2023-01-20T00:03:55.704Z,100639.16
2023-01-20T00:06:23.477Z,100638.09
2023-01-20T00:08:54.620Z,100632.90
2023-01-20T00:11:21.733Z,100627.52
2023-01-20T00:13:48.983Z,100624.17
2023-01-20T00:16:16.205Z,100626.81
2023-01-20T00:18:43.309Z,100625.88
2023-01-20T00:21:12.281Z,100627.36
2023-01-20T00:23:39.689Z,100623.88
2023-01-20T00:26:07.646Z,100626.43
2023-01-20T00:28:35.276Z,100632.91
2023-01-20T00:31:24.073Z,100630.83
2023-01-20T00:33:51.798Z,100628.26
2023-01-20T00:36:19.853Z,100628.06
2023-01-20T00:38:47.071Z,100627.70
2023-01-20T00:41:14.171Z,100632.48
2023-01-20T00:43:41.369Z,100632.23
2023-01-20T00:46:08.612Z,100632.52
2023-01-20T00:48:35.935Z,100626.11
2023-01-20T00:51:03.404Z,100627.79
2023-01-20T00:53:30.471Z,100633.20
2023-01-20T00:55:57.615Z,100628.13
2023-01-20T00:58:25.058Z,100630.66
2023-01-20T01:00:52.721Z,100623.59
2023-01-20T01:03:20.167Z,100618.23
2023-01-20T01:05:47.448Z,100617.14
2023-01-20T01:08:14.542Z,100619.48
2023-01-20T01:10:41.773Z,100618.73
2023-01-20T01:13:08.973Z,100614.08
2023-01-20T01:15:36.294Z,100609.45
2023-01-20T01:18:03.527Z,100616.98
2023-01-20T01:20:30.776Z,100608.92
2023-01-20T01:22:57.904Z,100608.41
2023-01-20T01:25:24.992Z,100608.40
2023-01-20T01:27:52.195Z,100598.34
2023-01-20T01:30:19.396Z,100609.86
2023-01-20T01:32:47.562Z,100600.64
2023-01-20T01:35:15.089Z,100606.80
2023-01-20T01:37:42.414Z,100597.26
2023-01-20T01:40:10.522Z,100596.59
2023-01-20T01:42:37.689Z,100594.69
2023-01-20T01:45:11.075Z,100584.91
2023-01-20T01:47:46.508Z,100592.11
2023-01-20T01:50:38.557Z,100588.38
2023-01-20T01:53:05.715Z,100589.58
2023-01-20T01:55:35.336Z,100591.95
2023-01-20T01:58:02.392Z,100585.83
2023-01-20T02:00:29.669Z,100594.91
2023-01-20T02:02:56.870Z,100582.61
2023-01-20T02:05:24.558Z,100581.77
2023-01-20T02:07:51.709Z,100576.94
2023-01-20T02:10:18.834Z,100586.14
2023-01-20T02:12:49.601Z,100589.03
2023-01-20T02:15:17.437Z,100579.23
2023-01-20T02:17:50.608Z,100582.98
2023-01-20T02:20:48.098Z,100578.19
2023-01-20T02:23:33.413Z,100576.64
2023-01-20T02:26:22.130Z,100566.36
2023-01-20T02:28:52.393Z,100577.80
2023-01-20T02:31:43.904Z,100579.77
2023-01-20T02:34:35.794Z,100576.80
2023-01-20T02:37:28.535Z,100573.16
2023-01-20T02:40:13.376Z,100579.98
2023-01-20T02:42:57.753Z,100594.15
2023-01-20T02:45:46.684Z,100598.22
2023-01-20T02:48:53.517Z,100600.39
2023-01-20T02:51:24.527Z,100592.66
2023-01-20T02:54:01.020Z,100597.10
2023-01-20T02:56:28.973Z,100601.20
2023-01-20T02:58:58.377Z,100605.59
2023-01-20T03:01:29.988Z,100601.94
2023-01-20T03:03:58.570Z,100606.64
2023-01-20T03:06:27.408Z,100604.88
2023-01-20T03:08:54.700Z,100608.27
2023-01-20T03:11:21.820Z,100610.61
2023-01-20T03:13:55.195Z,100605.77
2023-01-20T03:16:23.527Z,100603.80
2023-01-20T03:18:50.939Z,100597.58
2023-01-20T03:21:18.217Z,100606.61
2023-01-20T03:24:05.590Z,100603.17
2023-01-20T03:26:32.659Z,100600.93
2023-01-20T03:29:01.497Z,100597.02
2023-01-20T03:31:35.782Z,100593.45
2023-01-20T03:34:04.182Z,100582.54
2023-01-20T03:36:31.357Z,100593.17
2023-01-20T03:38:58.652Z,100592.70
2023-01-20T03:41:56.676Z,100597.19
2023-01-20T03:44:30.387Z,100592.79
2023-01-20T03:47:08.903Z,100595.38
2023-01-20T03:49:40.665Z,100592.52
2023-01-20T03:52:13.939Z,100594.77
2023-01-20T03:54:48.942Z,100586.56
2023-01-20T03:57:18.781Z,100595.27
2023-01-20T03:59:46.011Z,100601.42
2023-01-20T04:02:13.303Z,100608.11
2023-01-20T04:04:41.350Z,100612.39
2023-01-20T04:07:11.803Z,100621.78
2023-01-20T04:09:40.981Z,100621.23
2023-01-20T04:12:08.126Z,100623.59
2023-01-20T04:14:36.106Z,100615.02
2023-01-20T04:17:03.880Z,100613.56
2023-01-20T04:19:31.157Z,100610.41
2023-01-20T04:22:00.698Z,100615.69
2023-01-20T04:25:01.360Z,100610.49
2023-01-20T04:27:28.842Z,100614.04
2023-01-20T04:29:55.937Z,100616.04
2023-01-20T04:32:23.080Z,100616.33
2023-01-20T04:34:53.980Z,100617.83
2023-01-20T04:37:21.188Z,100615.04
2023-01-20T04:39:48.250Z,100614.45
2023-01-20T04:42:15.388Z,100613.33
2023-01-20T04:44:42.432Z,100624.58
2023-01-20T04:47:09.668Z,100637.35
2023-01-20T04:49:37.239Z,100638.85
2023-01-20T04:52:04.607Z,100634.38
2023-01-20T04:54:31.900Z,100639.48
2023-01-20T04:56:59.004Z,100637.95
2023-01-20T04:59:26.000Z,100645.30
2023-01-20T05:01:53.259Z,100641.39
2023-01-20T05:04:20.642Z,100643.80
2023-01-20T05:06:47.828Z,100640.45
2023-01-20T05:09:15.935Z,100646.78
2023-01-20T05:11:43.696Z,100648.61
2023-01-20T05:14:14.057Z,100648.58
2023-01-20T05:16:41.377Z,100642.57
2023-01-20T05:19:08.933Z,100644.25
2023-01-20T05:21:36.040Z,100639.41
2023-01-20T05:24:03.165Z,100641.06
2023-01-20T05:26:30.273Z,100639.34
2023-01-20T05:28:57.560Z,100644.45
2023-01-20T05:31:24.782Z,100635.86
2023-01-20T05:33:51.958Z,100643.00
2023-01-20T05:36:19.159Z,100636.84
2023-01-20T05:38:46.326Z,100637.48
2023-01-20T05:41:13.525Z,100642.07
2023-01-20T05:43:40.649Z,100646.43
2023-01-20T05:46:07.864Z,100639.65
2023-01-20T05:48:35.062Z,100639.39
2023-01-20T05:51:02.324Z,100644.47
2023-01-20T05:53:29.472Z,100641.70
2023-01-20T05:56:01.546Z,100648.33
2023-01-20T05:58:29.304Z,100639.89
2023-01-20T06:01:00.410Z,100644.62
2023-01-20T06:03:27.654Z,100647.34
2023-01-20T06:06:00.403Z,100641.64
2023-01-20T06:08:27.615Z,100643.30
2023-01-20T06:10:54.745Z,100641.79
2023-01-20T10:23:52.418Z,100557.55
2023-01-20T10:26:27.134Z,100551.47
2023-01-20T10:29:04.299Z,100552.45
2023-01-20T10:31:34.193Z,100541.38
2023-01-20T10:34:09.331Z,100544.42
2023-01-20T10:36:36.830Z,100542.25
2023-01-20T10:39:26.010Z,100545.38
2023-01-20T10:42:02.505Z,100551.61
2023-01-20T10:44:29.850Z,100542.30
2023-01-20T10:47:18.762Z,100542.63
2023-01-20T10:49:58.007Z,100539.29
2023-01-20T10:52:37.805Z,100534.02
2023-01-20T10:55:30.559Z,100527.95
2023-01-20T10:58:32.399Z,100529.67
2023-01-20T11:01:03.008Z,100527.02
2023-01-20T11:03:33.339Z,100523.98
2023-01-20T11:06:01.276Z,100517.33
2023-01-20T11:08:29.393Z,100520.55
2023-01-20T11:10:58.127Z,100523.45
2023-01-20T11:13:25.511Z,100524.70
2023-01-20T11:15:57.849Z,100515.96
2023-01-20T11:18:32.083Z,100502.22
2023-01-20T11:21:09.094Z,100500.19
2023-01-20T11:23:56.016Z,100511.41
2023-01-20T11:26:28.420Z,100516.05
2023-01-20T11:29:03.034Z,100518.47
2023-01-20T11:31:45.233Z,100515.83
2023-01-20T11:34:31.454Z,100517.03
2023-01-20T11:37:21.903Z,100516.98
2023-01-20T11:39:49.553Z,100516.23
2023-01-20T11:42:27.874Z,100510.75
2023-01-20T11:45:20.908Z,100514.68
2023-01-20T11:48:16.638Z,100514.05
2023-01-20T11:50:50.442Z,100514.50
2023-01-20T11:53:38.488Z,100511.34
2023-01-20T11:56:15.782Z,100509.45
2023-01-20T11:58:59.247Z,100505.98
2023-01-20T12:01:27.966Z,100504.96
2023-01-20T12:04:02.359Z,100518.35
2023-01-20T12:06:45.954Z,100528.73
2023-01-20T12:09:17.514Z,100526.16
2023-01-20T12:11:51.257Z,100530.48
2023-01-20T12:14:25.353Z,100530.83
2023-01-20T12:17:11.647Z,100528.75
2023-01-20T12:19:50.821Z,100524.27
2023-01-20T12:22:21.428Z,100532.05
2023-01-20T12:25:20.508Z,100531.54
2023-01-20T12:27:50.905Z,100531.03
2023-01-20T12:30:44.651Z,100526.73
2023-01-20T12:33:17.712Z,100525.53
2023-01-20T12:35:53.541Z,100524.14
2023-01-20T12:38:21.063Z,100519.14
2023-01-20T12:40:49.741Z,100514.81
2023-01-20T12:43:22.968Z,100511.87
2023-01-20T12:45:54.854Z,100502.88
2023-01-20T12:48:32.313Z,100505.43
2023-01-20T12:51:21.317Z,100506.95
2023-01-20T12:54:47.997Z,100502.77
2023-01-20T12:57:35.085Z,100506.84
2023-01-20T13:00:09.549Z,100515.57
2023-01-20T13:03:14.469Z,100514.16
2023-01-20T13:06:07.613Z,100511.37
2023-01-20T13:09:04.475Z,100522.35
2023-01-20T13:11:50.764Z,100521.98
2023-01-20T13:14:19.135Z,100519.23
2023-01-20T13:17:19.236Z,100514.41
2023-01-20T13:19:49.489Z,100520.61
2023-01-20T13:22:20.481Z,100516.09
2023-01-20T13:24:49.905Z,100514.86
2023-01-20T13:27:33.235Z,100510.34
2023-01-20T13:30:03.357Z,100506.84
2023-01-20T13:32:38.469Z,100512.77
2023-01-20T13:35:33.542Z,100514.78
2023-01-20T13:38:01.511Z,100502.35
2023-01-20T13:40:38.532Z,100494.06
2023-01-20T13:43:26.865Z,100494.36
2023-01-20T13:46:03.757Z,100493.79
2023-01-20T13:48:32.513Z,100482.40
2023-01-20T13:51:15.380Z,100487.50
2023-01-20T13:53:45.986Z,100499.30
2023-01-20T13:56:33.679Z,100494.96
2023-01-20T13:59:02.016Z,100493.88
2023-01-20T14:01:29.385Z,100497.60
2023-01-20T18:15:15.705Z,100489.85
2023-01-20T18:17:44.421Z,100488.28
2023-01-20T18:20:12.383Z,100490.83
2023-01-20T18:22:39.785Z,100482.77
2023-01-20T18:25:07.568Z,100489.39
2023-01-20T18:27:35.113Z,100479.64
2023-01-20T18:30:04.027Z,100490.85
2023-01-20T18:32:31.586Z,100471.29
2023-01-20T18:34:59.695Z,100478.14
2023-01-20T18:37:27.394Z,100486.32
2023-01-20T18:39:54.846Z,100478.67
2023-01-20T18:42:22.334Z,100472.58
2023-01-20T18:44:49.556Z,100472.46
2023-01-20T18:47:16.810Z,100469.89
2023-01-20T18:49:44.718Z,100471.77
2023-01-20T18:52:12.290Z,100469.81
2023-01-20T18:54:39.996Z,100470.64
2023-01-20T18:57:09.002Z,100465.10
2023-01-20T18:59:39.439Z,100463.08
2023-01-20T19:02:06.850Z,100465.63
2023-01-20T19:04:36.007Z,100459.00
2023-01-20T19:07:03.167Z,100467.71
2023-01-20T19:09:30.816Z,100470.07
2023-01-20T19:11:58.386Z,100460.04
2023-01-20T19:14:26.201Z,100464.48
2023-01-20T19:16:53.973Z,100461.61
2023-01-20T19:19:21.433Z,100462.66
2023-01-20T19:21:52.987Z,100459.42
2023-01-20T19:24:21.358Z,100470.86
2023-01-20T19:26:49.369Z,100462.71
2023-01-20T19:29:17.767Z,100455.44
2023-01-20T19:31:45.011Z,100448.31
2023-01-20T19:34:12.885Z,100442.33
2023-01-20T19:36:40.375Z,100447.44
2023-01-20T19:39:07.425Z,100436.39
2023-01-20T19:41:36.347Z,100434.02
2023-01-20T19:44:05.263Z,100422.95
2023-01-20T19:46:34.120Z,100439.51
2023-01-20T19:49:02.722Z,100423.10
2023-01-20T19:51:31.632Z,100411.00
2023-01-20T19:54:00.416Z,100434.88
2023-01-20T19:56:29.075Z,100431.85
2023-01-20T19:58:56.473Z,100433.52
2023-01-20T20:01:31.789Z,100433.66
2023-01-20T20:03:59.612Z,100425.41
2023-01-20T20:06:48.964Z,100436.48
2023-01-20T20:09:18.203Z,100428.45
2023-01-20T20:11:46.396Z,100433.41
2023-01-20T20:14:15.755Z,100426.44
2023-01-20T20:16:43.359Z,100419.77
2023-01-20T20:19:13.032Z,100417.52
2023-01-20T20:21:40.131Z,100411.36
2023-01-20T20:24:08.073Z,100409.63
2023-01-20T20:26:36.208Z,100431.69
2023-01-20T20:29:04.830Z,100427.44
2023-01-20T20:31:32.833Z,100417.04
2023-01-20T20:34:00.971Z,100435.75
2023-01-20T20:36:29.864Z,100427.77
2023-01-20T20:38:58.922Z,100409.32
2023-01-20T20:41:29.218Z,100410.34
2023-01-20T20:43:57.061Z,100416.80
2023-01-20T20:46:24.547Z,100416.09
2023-01-20T20:48:56.079Z,100432.77
2023-01-20T20:51:26.009Z,100419.08
2023-01-20T20:53:54.734Z,100412.73
2023-01-20T20:56:23.058Z,100430.27
2023-01-20T20:59:00.951Z,100428.21
2023-01-20T21:01:30.516Z,100425.83
2023-01-20T21:03:58.354Z,100422.73
2023-01-20T21:06:26.929Z,100427.10
2023-01-20T21:08:55.090Z,100423.02
2023-01-20T21:11:24.713Z,100424.33
2023-01-20T21:13:52.647Z,100420.41
2023-01-20T21:16:22.397Z,100440.66
2023-01-20T21:18:51.307Z,100440.81
2023-01-20T21:21:19.710Z,100433.65
2023-01-20T21:23:51.077Z,100434.49
2023-01-20T21:26:18.274Z,100449.83
2023-01-20T21:28:49.660Z,100438.73
2023-01-20T21:31:19.436Z,100432.59
2023-01-20T21:33:47.068Z,100435.77
2023-01-20T21:36:14.816Z,100435.08
2023-01-20T21:38:44.827Z,100431.96
2023-01-20T21:41:13.871Z,100427.17
2023-01-20T21:44:01.506Z,100423.04
2023-01-20T21:46:31.142Z,100436.77
2023-01-20T21:49:18.691Z,100438.39
2023-01-20T21:52:04.567Z,100437.16
2023-01-20T21:54:32.974Z,100438.17
2023-01-20T21:57:00.894Z,100440.89
2023-01-20T21:59:29.173Z,100436.25
2023-01-20T22:01:56.589Z,100447.66
2023-01-20T22:04:24.241Z,100430.92
2023-01-20T22:06:51.439Z,100428.65
2023-01-20T22:09:19.147Z,100435.27
2023-01-20T22:11:47.015Z,100431.13
2023-01-20T22:14:14.407Z,100432.41
2023-01-20T22:16:42.129Z,100432.39
2023-01-20T22:19:14.790Z,100438.30
2023-01-20T22:21:42.525Z,100435.02
2023-01-20T22:24:10.700Z,100427.13
2023-01-20T22:26:38.782Z,100418.07
2023-01-20T22:29:07.279Z,100425.00
2023-01-20T22:31:35.740Z,100422.77
2023-01-20T22:34:05.628Z,100425.13
2023-01-20T22:36:33.462Z,100425.47
2023-01-20T22:39:01.207Z,100425.42
2023-01-20T22:41:28.457Z,100418.40
2023-01-20T22:43:56.545Z,100410.33
2023-01-20T22:46:25.909Z,100410.79
2023-01-20T22:48:54.658Z,100419.02
2023-01-20T22:51:23.394Z,100420.86
2023-01-20T22:53:52.702Z,100416.21
2023-01-20T22:56:21.874Z,100414.32
2023-01-20T22:58:49.136Z,100392.66
2023-01-20T23:01:21.145Z,100405.59
2023-01-20T23:03:48.768Z,100417.63
2023-01-20T23:06:16.624Z,100401.56
2023-01-20T23:08:44.152Z,100413.83
2023-01-20T23:11:13.333Z,100415.02
2023-01-20T23:13:40.900Z,100414.48
2023-01-20T23:16:10.820Z,100415.93
2023-01-20T23:18:38.632Z,100422.69
2023-01-20T23:21:06.401Z,100427.92
2023-01-20T23:23:34.404Z,100418.23
2023-01-20T23:26:02.589Z,100401.15
2023-01-20T23:28:30.642Z,100417.52
2023-01-20T23:31:06.061Z,100415.59
2023-01-20T23:33:34.367Z,100403.11
2023-01-20T23:36:09.682Z,100417.05
2023-01-20T23:38:37.286Z,100406.46
2023-01-20T23:41:05.305Z,100407.84
2023-01-20T23:43:32.434Z,100411.09
2023-01-20T23:46:00.320Z,100423.33
2023-01-20T23:48:28.376Z,100414.83
2023-01-20T23:50:56.697Z,100413.77
2023-01-20T23:53:24.307Z,100414.58
2023-01-20T23:55:51.550Z,100420.02
2023-01-20T23:58:19.039Z,100407.39
